This is the latest recevied weather packets stored in our database for station/object DO1SC. If no packets are shown the sender has not sent any weather packets the latest 10 day(s).
| Time | Temp. | Humidity | Pressure | Rain* | Wind** | Luminosity | Snow |
|---|---|---|---|---|---|---|---|
| 1777847732 | 15.56° C | 53% | 1015 hPa | - | - | 0 W/m² | - |
| 1777847138 | 15.56° C | 53% | 1015 hPa | - | - | 0 W/m² | - |
| 1777846536 | 15.56° C | 54% | 1014.9 hPa | - | - | 0 W/m² | - |
| 1777845927 | 15° C | 54% | 1014.7 hPa | - | - | 0 W/m² | - |
| 1777845318 | 15° C | 55% | 1014.7 hPa | - | - | 0 W/m² | - |
| 1777844730 | 15° C | 56% | 1014.6 hPa | - | - | 0 W/m² | - |
| 1777844125 | 15.56° C | 56% | 1014.5 hPa | - | - | 0 W/m² | - |
| 1777843536 | 15.56° C | 53% | 1014.6 hPa | - | - | 0 W/m² | - |
| 1777842925 | 16.11° C | 51% | 1014.5 hPa | - | - | 0 W/m² | - |
| 1777842316 | 16.11° C | 51% | 1014.4 hPa | - | - | 0 W/m² | - |
| 1777841731 | 16.11° C | 51% | 1014.3 hPa | - | - | 0 W/m² | - |
| 1777841120 | 16.67° C | 50% | 1014.2 hPa | - | - | 0 W/m² | - |
| 1777840531 | 16.67° C | 50% | 1014.3 hPa | - | - | 0 W/m² | - |
| 1777839923 | 16.67° C | 49% | 1014.3 hPa | - | - | 0 W/m² | - |
| 1777839335 | 17.22° C | 48% | 1014.4 hPa | - | - | 0 W/m² | - |
| 1777838725 | 17.78° C | 46% | 1014.3 hPa | - | - | 0 W/m² | - |
| 1777838120 | 17.78° C | 46% | 1014.3 hPa | - | - | 0 W/m² | - |
| 1777837529 | 17.78° C | 46% | 1014.3 hPa | - | - | 0 W/m² | - |
| 1777836920 | 17.22° C | 48% | 1014.2 hPa | - | - | 0 W/m² | - |
| 1777836335 | 17.78° C | 48% | 1014.1 hPa | - | - | 0 W/m² | - |
| 1777835723 | 17.78° C | 48% | 1014.1 hPa | - | - | 0 W/m² | - |
| 1777835135 | 18.33° C | 47% | 1014.1 hPa | - | - | 0 W/m² | - |
| 1777834530 | 18.89° C | 45% | 1014 hPa | - | - | 0 W/m² | - |
| 1777833919 | 18.89° C | 44% | 1014 hPa | - | - | 1 W/m² | - |
| 1777833330 | 19.44° C | 42% | 1013.7 hPa | - | - | 2 W/m² | - |
* Rain since midnight (hover to see other rain measurements)
** Current wind speed in m/s (hover to see current wind gust speed)